createdAt,value
2022-08-22T00:01:13.541Z,96811.38
2022-08-22T00:02:59.281Z,96815.41
2022-08-22T00:02:59.808Z,96796.41
2022-08-22T00:02:59.810Z,96828.69
2022-08-22T00:03:03.386Z,96821.16
2022-08-22T00:04:03.091Z,96808.63
2022-08-22T00:06:52.783Z,96801.03
2022-08-22T00:09:31.761Z,96807.75
2022-08-22T00:12:04.011Z,96816.09
2022-08-22T00:14:58.663Z,96818.91
2022-08-22T00:17:37.312Z,96821.00
2022-08-22T00:20:06.170Z,96815.78
2022-08-22T00:22:55.782Z,96818.34
2022-08-22T00:25:26.078Z,96815.28
2022-08-22T00:28:01.629Z,96802.59
2022-08-22T00:30:30.383Z,96805.91
2022-08-22T00:33:02.522Z,96813.50
2022-08-22T00:35:41.685Z,96818.25
2022-08-22T00:38:28.556Z,96813.84
2022-08-22T00:41:07.567Z,96817.09
2022-08-22T00:44:16.212Z,96812.16
2022-08-22T00:46:57.726Z,96821.00
2022-08-22T00:49:41.834Z,96816.50
2022-08-22T00:52:18.430Z,96820.66
2022-08-22T00:55:05.694Z,96819.84
2022-08-22T00:57:49.800Z,96823.22
2022-08-22T01:00:25.009Z,96812.72
2022-08-22T01:03:16.452Z,96826.09
2022-08-22T01:06:08.513Z,96819.59
2022-08-22T01:09:10.781Z,96820.75
2022-08-22T01:12:02.061Z,96812.66
2022-08-22T01:14:38.558Z,96820.25
2022-08-22T01:17:32.008Z,96815.19
2022-08-22T01:20:07.242Z,96816.56
2022-08-22T01:22:36.474Z,96810.63
2022-08-22T01:25:22.400Z,96815.25
2022-08-22T01:28:16.535Z,96815.13
2022-08-22T01:31:00.854Z,96812.97
2022-08-22T01:34:14.416Z,96803.56
2022-08-22T01:36:44.517Z,96801.00
2022-08-22T01:39:28.672Z,96804.66
2022-08-22T01:41:57.738Z,96806.09
2022-08-22T01:44:32.770Z,96806.09
2022-08-22T01:47:14.552Z,96797.88
2022-08-22T01:49:54.441Z,96801.13
2022-08-22T01:52:30.097Z,96811.03
2022-08-22T01:55:03.186Z,96801.16
2022-08-22T01:57:32.221Z,96794.44
2022-08-22T02:00:09.862Z,96797.78
2022-08-22T02:02:51.172Z,96800.97
2022-08-22T02:05:18.583Z,96797.94
2022-08-22T02:07:58.849Z,96790.72
2022-08-22T02:10:59.706Z,96800.91
2022-08-22T02:13:46.820Z,96797.56
2022-08-22T02:16:38.763Z,96806.88
2022-08-22T02:19:11.837Z,96801.13
2022-08-22T02:22:20.196Z,96799.31
2022-08-22T02:24:54.108Z,96790.97
2022-08-22T02:27:35.510Z,96790.34
2022-08-22T02:30:17.105Z,96794.28
2022-08-22T02:33:08.783Z,96791.72
2022-08-22T02:35:54.618Z,96785.81
2022-08-22T02:38:42.945Z,96783.53
2022-08-22T02:41:29.294Z,96784.16
2022-08-22T02:44:06.998Z,96773.72
2022-08-22T02:46:49.770Z,96781.59
2022-08-22T02:49:27.590Z,96777.06
2022-08-22T02:52:03.397Z,96781.50
2022-08-22T02:54:37.211Z,96771.91
2022-08-22T02:57:11.373Z,96778.75
2022-08-22T03:00:04.408Z,96778.47
2022-08-22T03:02:34.327Z,96782.44
2022-08-22T03:05:27.054Z,96777.41
2022-08-22T03:08:07.889Z,96773.47
2022-08-22T03:10:40.094Z,96772.41
2022-08-22T03:13:11.788Z,96786.72
2022-08-22T03:16:21.320Z,96782.63
2022-08-22T03:18:50.457Z,96781.41
2022-08-22T03:21:30.861Z,96778.69
2022-08-22T03:24:06.289Z,96777.16
2022-08-22T03:26:38.853Z,96782.94
2022-08-22T03:29:29.623Z,96767.25
2022-08-22T03:32:13.972Z,96782.34
2022-08-22T03:34:59.303Z,96779.16
2022-08-22T03:37:37.935Z,96776.25
2022-08-22T03:40:19.851Z,96779.16
2022-08-22T03:42:58.054Z,96777.31
2022-08-22T03:45:38.770Z,96768.81
2022-08-22T03:48:17.639Z,96773.69
2022-08-22T03:51:08.655Z,96773.69
2022-08-22T03:54:11.980Z,96764.66
2022-08-22T03:56:47.389Z,96780.31
2022-08-22T03:59:44.618Z,96786.41
2022-08-22T04:02:45.763Z,96785.31
2022-08-22T04:05:33.215Z,96790.34
2022-08-22T04:08:26.400Z,96777.13
2022-08-22T04:11:10.787Z,96785.22
2022-08-22T04:14:31.566Z,96780.50
2022-08-22T04:17:23.646Z,96785.78
2022-08-22T04:20:20.952Z,96790.06
2022-08-22T04:23:19.434Z,96803.13
2022-08-22T04:25:55.713Z,96791.72
2022-08-22T04:28:37.819Z,96800.06
2022-08-22T04:31:12.616Z,96799.44
2022-08-22T04:33:59.086Z,96802.94
2022-08-22T04:36:39.828Z,96798.22
2022-08-22T04:39:27.923Z,96794.41
2022-08-22T04:42:29.056Z,96802.63
2022-08-22T04:45:18.050Z,96810.84
2022-08-22T04:47:54.199Z,96810.56
2022-08-22T04:50:43.366Z,96809.63
2022-08-22T04:53:31.786Z,96816.63
2022-08-22T04:56:25.297Z,96814.22
2022-08-22T04:59:03.573Z,96822.66
2022-08-22T05:02:06.374Z,96816.59
2022-08-22T05:04:39.338Z,96810.38
2022-08-22T05:07:20.375Z,96811.28
2022-08-22T05:09:59.192Z,96810.41
2022-08-22T05:12:39.396Z,96811.47
2022-08-22T05:15:15.474Z,96813.91
2022-08-22T05:17:51.750Z,96818.78
2022-08-22T05:20:23.483Z,96814.97
2022-08-22T05:22:59.307Z,96803.59
2022-08-22T05:25:33.545Z,96803.59
2022-08-22T05:28:20.935Z,96804.03
2022-08-22T05:30:48.868Z,96811.03
2022-08-22T05:33:27.818Z,96814.41
2022-08-22T05:36:04.815Z,96811.38
2022-08-22T05:38:37.304Z,96818.22
2022-08-22T05:41:17.527Z,96818.81
2022-08-22T05:43:45.341Z,96830.59
2022-08-22T05:46:35.281Z,96824.13
2022-08-22T05:49:03.992Z,96821.41
2022-08-22T05:51:41.793Z,96818.63
2022-08-22T05:54:34.478Z,96822.34
2022-08-22T05:57:11.390Z,96840.81
2022-08-22T05:59:45.053Z,96834.66
2022-08-22T06:02:26.348Z,96824.31
2022-08-22T06:04:59.442Z,96830.09
2022-08-22T06:07:35.932Z,96836.84
2022-08-22T06:10:20.075Z,96836.16
2022-08-22T06:13:05.722Z,96836.47
2022-08-22T06:15:54.914Z,96852.19
2022-08-22T06:18:25.581Z,96839.06
2022-08-22T06:21:00.046Z,96840.16
2022-08-22T06:23:31.889Z,96841.16
2022-08-22T06:26:05.445Z,96846.91
2022-08-22T06:28:54.927Z,96842.38
2022-08-22T06:31:40.163Z,96848.91
2022-08-22T06:34:12.783Z,96860.06
2022-08-22T06:36:43.485Z,96863.97
2022-08-22T06:39:18.959Z,96861.28
2022-08-22T06:41:52.057Z,96863.22
2022-08-22T06:44:28.721Z,96867.06
2022-08-22T06:46:59.250Z,96864.53
2022-08-22T06:49:30.755Z,96869.81
2022-08-22T06:52:06.623Z,96869.06
2022-08-22T06:54:38.720Z,96870.22
2022-08-22T06:57:08.800Z,96873.09
2022-08-22T06:59:38.166Z,96863.19
2022-08-22T07:02:41.577Z,96867.66
2022-08-22T07:05:20.616Z,96852.50
2022-08-22T07:07:47.900Z,96859.38
2022-08-22T07:10:18.668Z,96866.88
2022-08-22T07:12:48.211Z,96875.03
2022-08-22T07:15:37.160Z,96870.06
2022-08-22T07:18:18.559Z,96868.84
2022-08-22T07:20:54.511Z,96871.38
2022-08-22T07:23:36.505Z,96874.28
2022-08-22T07:26:27.509Z,96873.97
2022-08-22T07:28:59.682Z,96865.03
2022-08-22T07:31:26.171Z,96865.13
2022-08-22T07:34:18.886Z,96859.19
2022-08-22T07:36:56.449Z,96860.94
2022-08-22T07:39:35.956Z,96863.69
2022-08-22T07:42:08.323Z,96858.94
2022-08-22T07:44:45.067Z,96853.72
2022-08-22T07:47:26.330Z,96854.03
2022-08-22T07:50:03.811Z,96854.22
2022-08-22T07:52:42.318Z,96848.94
2022-08-22T07:55:23.846Z,96852.13
2022-08-22T07:57:59.099Z,96853.88
2022-08-22T08:00:29.714Z,96845.31
2022-08-22T08:03:05.054Z,96847.78
2022-08-22T08:05:37.196Z,96847.47
2022-08-22T08:08:13.855Z,96850.72
2022-08-22T08:10:45.743Z,96849.34
2022-08-22T08:13:23.136Z,96852.13
2022-08-22T08:15:52.974Z,96837.66
2022-08-22T08:18:26.828Z,96848.22
2022-08-22T08:21:02.358Z,96839.63
2022-08-22T08:23:39.642Z,96848.41
2022-08-22T08:26:17.418Z,96835.63
2022-08-22T08:28:54.382Z,96825.59
2022-08-22T08:31:43.031Z,96832.41
2022-08-22T08:34:19.452Z,96832.91
2022-08-22T08:36:51.901Z,96835.13
2022-08-22T08:39:26.261Z,96837.16
2022-08-22T08:42:16.340Z,96837.66
2022-08-22T08:45:06.281Z,96843.16
2022-08-22T08:48:25.709Z,96833.66
2022-08-22T08:51:02.368Z,96816.19
2022-08-22T08:53:54.562Z,96822.19
2022-08-22T08:56:27.574Z,96826.47
2022-08-22T08:59:02.532Z,96828.78
2022-08-22T09:01:47.626Z,96816.34
2022-08-22T09:04:17.115Z,96815.94
2022-08-22T09:07:08.167Z,96815.19
2022-08-22T09:10:02.981Z,96812.78
2022-08-22T09:13:11.114Z,96809.53
2022-08-22T09:15:38.916Z,96804.81
2022-08-22T09:18:11.563Z,96818.44
2022-08-22T09:21:02.444Z,96803.44
2022-08-22T09:23:31.740Z,96813.72
2022-08-22T09:26:20.458Z,96805.31
2022-08-22T09:29:07.859Z,96799.09
2022-08-22T09:32:00.975Z,96790.34
2022-08-22T09:34:34.266Z,96801.09
2022-08-22T09:37:20.650Z,96799.94
2022-08-22T09:40:04.591Z,96799.41
2022-08-22T09:42:34.374Z,96807.50
2022-08-22T09:45:06.926Z,96795.56
2022-08-22T09:47:47.971Z,96798.56
2022-08-22T09:50:32.415Z,96799.91
2022-08-22T09:53:10.777Z,96801.00
2022-08-22T09:56:11.611Z,96791.69
2022-08-22T09:59:09.863Z,96800.94
2022-08-22T10:02:14.345Z,96800.84
2022-08-22T10:05:06.793Z,96790.94
2022-08-22T10:07:55.036Z,96796.44
2022-08-22T10:10:39.830Z,96796.38
2022-08-22T10:13:44.978Z,96794.38
2022-08-22T10:16:33.409Z,96794.91
2022-08-22T10:19:29.986Z,96789.50
2022-08-22T10:22:15.179Z,96804.00
2022-08-22T10:25:19.560Z,96798.38
2022-08-22T10:28:32.662Z,96794.47
2022-08-22T10:31:08.491Z,96795.44
2022-08-22T10:33:56.255Z,96798.34
2022-08-22T10:37:04.238Z,96801.75
2022-08-22T10:39:56.404Z,96804.69
2022-08-22T10:42:51.144Z,96806.31
2022-08-22T10:45:46.090Z,96797.28
2022-08-22T10:48:19.683Z,96800.53
2022-08-22T10:50:55.377Z,96785.63
2022-08-22T10:53:53.826Z,96794.03
2022-08-22T10:56:27.373Z,96800.75
2022-08-22T10:59:23.339Z,96795.84
2022-08-22T11:02:03.460Z,96791.38
2022-08-22T11:04:55.579Z,96792.38
2022-08-22T11:07:44.553Z,96783.75
2022-08-22T11:10:29.406Z,96780.81
2022-08-22T11:13:23.725Z,96777.09
2022-08-22T11:16:04.569Z,96779.72
2022-08-22T11:19:14.996Z,96779.31
2022-08-22T11:21:46.126Z,96776.94
2022-08-22T11:24:54.014Z,96776.69
2022-08-22T11:28:07.443Z,96763.25
2022-08-22T11:31:03.577Z,96772.16
2022-08-22T11:33:46.925Z,96773.72
2022-08-22T11:36:27.243Z,96770.53
2022-08-22T11:39:18.713Z,96758.22
2022-08-22T11:42:01.641Z,96759.13
2022-08-22T11:44:50.023Z,96750.34
2022-08-22T11:47:26.550Z,96743.56
2022-08-22T11:50:38.613Z,96746.28
2022-08-22T11:53:26.420Z,96750.78
2022-08-22T11:56:05.387Z,96744.75
2022-08-22T11:58:32.378Z,96743.16
2022-08-22T12:01:06.054Z,96742.47
2022-08-22T12:03:58.128Z,96733.63
2022-08-22T12:06:56.087Z,96740.25
2022-08-22T12:09:31.933Z,96737.16
2022-08-22T12:12:06.490Z,96735.47
2022-08-22T12:14:45.352Z,96737.28
2022-08-22T12:17:22.778Z,96725.41
2022-08-22T12:20:45.597Z,96740.00
2022-08-22T12:23:14.875Z,96729.16
2022-08-22T12:26:12.672Z,96736.56
2022-08-22T12:29:03.227Z,96727.66
2022-08-22T12:31:57.720Z,96729.59
2022-08-22T12:34:44.575Z,96738.25
2022-08-22T12:37:22.526Z,96715.00
2022-08-22T12:40:30.893Z,96717.06
2022-08-22T12:43:15.273Z,96716.53
2022-08-22T12:46:02.358Z,96716.16
2022-08-22T12:48:28.924Z,96711.81
2022-08-22T12:51:17.664Z,96709.97
2022-08-22T12:53:53.077Z,96711.47
2022-08-22T12:56:44.648Z,96703.78
2022-08-22T12:59:36.649Z,96696.84
2022-08-22T13:02:13.367Z,96699.69
2022-08-22T13:04:49.844Z,96698.50
2022-08-22T13:07:34.572Z,96694.00
2022-08-22T13:10:26.841Z,96688.53
2022-08-22T13:12:59.403Z,96687.44
2022-08-22T13:15:28.868Z,96688.75
2022-08-22T13:18:13.330Z,96688.09
2022-08-22T13:20:50.605Z,96685.34
2022-08-22T13:23:24.516Z,96690.03
2022-08-22T13:26:10.151Z,96688.56
2022-08-22T13:32:02.815Z,96662.38
2022-08-22T13:34:48.823Z,96677.72
2022-08-22T13:37:24.614Z,96675.09
2022-08-22T13:39:59.418Z,96675.91
2022-08-22T13:42:32.315Z,96678.88
2022-08-22T13:45:05.075Z,96667.28
2022-08-22T13:47:35.882Z,96676.75
2022-08-22T13:50:21.253Z,96678.34
2022-08-22T13:52:55.788Z,96696.34
2022-08-22T13:55:29.599Z,96681.59
2022-08-22T13:58:14.856Z,96677.47
2022-08-22T14:01:18.824Z,96677.72
2022-08-22T14:03:49.137Z,96670.78
2022-08-22T14:06:36.897Z,96671.63
2022-08-22T14:09:32.715Z,96652.97
2022-08-22T14:12:50.500Z,96653.44
2022-08-22T14:15:26.018Z,96649.41
2022-08-22T14:18:11.285Z,96641.94
2022-08-22T14:20:41.631Z,96644.44
2022-08-22T14:23:11.567Z,96645.97
2022-08-22T14:25:43.609Z,96646.50
2022-08-22T14:28:32.343Z,96648.41
2022-08-22T14:31:14.798Z,96639.25
2022-08-22T14:33:51.469Z,96638.16
2022-08-22T14:36:30.235Z,96638.28
2022-08-22T14:39:11.980Z,96635.03
2022-08-22T14:41:56.078Z,96637.00
2022-08-22T14:45:10.311Z,96637.88
2022-08-22T14:47:55.025Z,96645.72
2022-08-22T14:50:38.550Z,96640.06
2022-08-22T14:53:19.103Z,96634.22
2022-08-22T14:56:28.309Z,96634.16
2022-08-22T14:59:04.461Z,96626.34
2022-08-22T15:01:35.129Z,96621.41
2022-08-22T15:04:07.898Z,96624.28
2022-08-22T15:06:47.760Z,96628.84
2022-08-22T15:09:36.631Z,96626.03
2022-08-22T15:12:33.197Z,96624.78
2022-08-22T15:15:13.161Z,96615.28
2022-08-22T15:17:50.788Z,96622.44
2022-08-22T15:20:35.266Z,96615.13
2022-08-22T15:23:15.812Z,96612.69
2022-08-22T15:25:47.144Z,96611.94
2022-08-22T15:28:20.044Z,96616.84
2022-08-22T15:30:58.796Z,96615.03
2022-08-22T15:33:39.087Z,96610.44
2022-08-22T15:36:16.913Z,96615.66
2022-08-22T15:39:14.642Z,96602.31
2022-08-22T15:41:46.031Z,96607.56
2022-08-22T15:44:33.268Z,96605.38
2022-08-22T15:47:03.063Z,96607.22
2022-08-22T15:49:36.066Z,96600.19
2022-08-22T15:52:04.120Z,96613.09
2022-08-22T15:54:51.323Z,96605.81
2022-08-22T15:57:26.609Z,96604.31
2022-08-22T15:59:58.577Z,96602.47
2022-08-22T16:02:28.108Z,96596.69
2022-08-22T16:05:10.565Z,96609.81
2022-08-22T16:07:45.934Z,96594.56
2022-08-22T16:10:24.849Z,96593.53
2022-08-22T16:13:15.843Z,96603.03
2022-08-22T16:15:52.630Z,96596.38
2022-08-22T16:18:34.374Z,96601.44
2022-08-22T16:21:04.077Z,96599.50
2022-08-22T16:23:51.283Z,96599.41
2022-08-22T16:26:25.405Z,96600.91
2022-08-22T16:29:17.856Z,96596.63
2022-08-22T16:31:44.802Z,96602.09
2022-08-22T16:34:23.123Z,96602.09
2022-08-22T16:36:51.664Z,96605.09
2022-08-22T16:39:21.318Z,96599.63
2022-08-22T16:41:49.394Z,96604.34
2022-08-22T16:44:30.402Z,96599.63
2022-08-22T16:47:10.219Z,96603.06
2022-08-22T16:50:03.145Z,96595.88
2022-08-22T16:52:31.975Z,96597.91
2022-08-22T16:55:28.587Z,96589.03
2022-08-22T16:58:40.068Z,96591.19
2022-08-22T17:01:29.750Z,96596.09
2022-08-22T17:04:45.371Z,96588.66
2022-08-22T17:07:31.948Z,96594.88
2022-08-22T17:10:12.615Z,96593.03
2022-08-22T17:13:15.532Z,96605.91
2022-08-22T17:16:17.384Z,96608.00
2022-08-22T17:18:58.742Z,96603.00
2022-08-22T17:21:30.324Z,96600.97
2022-08-22T17:24:32.049Z,96607.03
2022-08-22T17:27:37.548Z,96618.78
2022-08-22T17:30:21.741Z,96615.34
2022-08-22T17:32:59.052Z,96626.81
2022-08-22T17:35:45.718Z,96620.13
2022-08-22T17:38:30.437Z,96624.97
2022-08-22T17:40:56.908Z,96624.63
2022-08-22T17:43:55.323Z,96629.59
2022-08-22T17:46:49.088Z,96625.25
2022-08-22T17:49:40.611Z,96630.25
2022-08-22T17:52:28.004Z,96625.34
2022-08-22T17:54:57.547Z,96632.75
2022-08-22T17:57:45.040Z,96639.63
2022-08-22T18:00:33.155Z,96631.69
2022-08-22T18:03:10.939Z,96630.97
2022-08-22T18:05:52.383Z,96632.56
2022-08-22T18:11:20.530Z,96643.72
2022-08-22T18:13:59.188Z,96643.28
2022-08-22T18:16:53.866Z,96643.06
2022-08-22T18:19:39.944Z,96648.88
2022-08-22T18:22:29.108Z,96643.91
2022-08-22T18:25:04.575Z,96646.97
2022-08-22T18:27:51.171Z,96649.97
2022-08-22T18:30:36.858Z,96649.25
2022-08-22T18:33:34.145Z,96662.34
2022-08-22T18:36:18.223Z,96646.25
2022-08-22T18:38:57.578Z,96667.91
2022-08-22T18:41:27.082Z,96664.41
2022-08-22T18:43:54.710Z,96657.13
2022-08-22T18:46:43.886Z,96666.69
2022-08-22T18:49:40.291Z,96676.78
2022-08-22T18:52:09.493Z,96674.75
2022-08-22T18:54:49.611Z,96675.00
2022-08-22T18:57:53.762Z,96684.56
2022-08-22T19:00:47.112Z,96682.81
2022-08-22T19:03:38.385Z,96689.34
2022-08-22T19:06:20.892Z,96689.53
2022-08-22T19:09:16.284Z,96685.25
2022-08-22T19:11:58.179Z,96678.72
2022-08-22T19:14:46.673Z,96685.25
2022-08-22T19:18:10.271Z,96691.50
2022-08-22T19:20:59.439Z,96694.22
2022-08-22T19:23:32.029Z,96696.75
2022-08-22T19:26:29.440Z,96699.72
2022-08-22T19:29:08.760Z,96701.00
2022-08-22T19:31:39.961Z,96706.22
2022-08-22T19:34:41.503Z,96710.19
2022-08-22T19:37:32.410Z,96713.94
2022-08-22T19:40:11.739Z,96715.13
2022-08-22T19:42:41.884Z,96703.53
2022-08-22T19:45:22.704Z,96725.84
2022-08-22T19:48:03.036Z,96715.53
2022-08-22T19:50:35.362Z,96727.84
2022-08-22T19:53:19.158Z,96724.06
2022-08-22T19:56:27.101Z,96729.56
2022-08-22T19:59:50.652Z,96729.28
2022-08-22T20:02:21.350Z,96710.16
2022-08-22T20:05:15.287Z,96730.53
2022-08-22T20:08:11.206Z,96719.69
2022-08-22T20:10:47.025Z,96729.56
2022-08-22T20:13:24.327Z,96733.34
2022-08-22T20:16:07.206Z,96729.13
2022-08-22T20:19:06.131Z,96730.25
2022-08-22T20:21:45.562Z,96732.50
2022-08-22T20:24:54.422Z,96733.09
2022-08-22T20:27:26.861Z,96730.16
2022-08-22T20:30:12.148Z,96735.47
2022-08-22T20:32:50.593Z,96730.72
2022-08-22T20:35:24.073Z,96736.78
2022-08-22T20:38:06.726Z,96724.44
2022-08-22T20:40:57.877Z,96730.97
2022-08-22T20:43:59.159Z,96742.25
2022-08-22T20:47:14.018Z,96748.75
2022-08-22T20:49:55.095Z,96735.94
2022-08-22T20:52:27.386Z,96735.94
2022-08-22T20:55:31.938Z,96732.38
2022-08-22T20:58:06.386Z,96732.59
2022-08-22T21:00:32.942Z,96736.81
2022-08-22T21:03:09.122Z,96736.28
2022-08-22T21:05:42.975Z,96740.56
2022-08-22T21:08:12.839Z,96746.75
2022-08-22T21:11:00.358Z,96746.72
2022-08-22T21:13:26.888Z,96742.66
2022-08-22T21:16:11.368Z,96751.69
2022-08-22T21:18:47.476Z,96752.88
2022-08-22T21:21:21.089Z,96752.53
2022-08-22T21:24:00.524Z,96753.78
2022-08-22T21:26:27.685Z,96760.97
2022-08-22T21:29:03.110Z,96763.94
2022-08-22T21:32:04.370Z,96767.50
2022-08-22T21:34:41.231Z,96760.19
2022-08-22T21:37:14.446Z,96766.75
2022-08-22T21:39:53.485Z,96760.19
2022-08-22T21:42:38.775Z,96765.44
2022-08-22T21:45:31.477Z,96760.97
2022-08-22T21:47:58.543Z,96763.84
2022-08-22T21:50:37.881Z,96776.19
2022-08-22T21:53:27.647Z,96761.31
2022-08-22T21:56:12.571Z,96772.44
2022-08-22T21:58:42.150Z,96763.19
2022-08-22T22:01:32.941Z,96772.41
2022-08-22T22:04:00.311Z,96779.81
2022-08-22T22:06:29.942Z,96776.53
2022-08-22T22:08:56.531Z,96763.38
2022-08-22T22:11:23.179Z,96774.19
2022-08-22T22:13:52.199Z,96778.66
2022-08-22T22:16:24.980Z,96779.41
2022-08-22T22:18:54.883Z,96773.91
2022-08-22T22:21:21.975Z,96785.13
2022-08-22T22:23:50.963Z,96779.91
2022-08-22T22:26:21.396Z,96785.59
2022-08-22T22:28:51.772Z,96781.88
2022-08-22T22:31:18.730Z,96783.69
2022-08-22T22:33:50.353Z,96788.00
2022-08-22T22:36:22.673Z,96791.06
2022-08-22T22:38:51.569Z,96799.31
2022-08-22T22:41:20.303Z,96792.75
2022-08-22T22:43:47.060Z,96790.56
2022-08-22T22:46:13.703Z,96793.38
2022-08-22T22:48:42.613Z,96797.44
2022-08-22T22:51:12.254Z,96791.22
2022-08-22T22:53:42.553Z,96793.06
2022-08-22T22:56:15.861Z,96789.72
2022-08-22T22:58:45.019Z,96793.34
2022-08-22T23:01:15.425Z,96791.56
2022-08-22T23:03:43.073Z,96792.31
2022-08-22T23:06:21.209Z,96780.22
2022-08-22T23:08:53.624Z,96787.25
2022-08-22T23:11:26.471Z,96792.22
2022-08-22T23:13:53.247Z,96793.34
2022-08-22T23:16:27.460Z,96807.91
2022-08-22T23:18:54.609Z,96788.31
2022-08-22T23:21:29.680Z,96800.53
2022-08-22T23:23:58.533Z,96806.63
2022-08-22T23:26:28.833Z,96806.88
2022-08-22T23:28:56.743Z,96803.97
2022-08-22T23:31:30.829Z,96802.25
2022-08-22T23:34:02.654Z,96806.88
2022-08-22T23:36:29.791Z,96794.88
2022-08-22T23:38:57.349Z,96805.38
2022-08-22T23:41:27.190Z,96813.34
2022-08-22T23:43:57.523Z,96817.22
2022-08-22T23:46:26.756Z,96813.16
2022-08-22T23:48:56.830Z,96820.81
2022-08-22T23:51:26.533Z,96821.94
2022-08-22T23:53:55.903Z,96824.88
2022-08-22T23:56:30.862Z,96825.13
2022-08-22T23:58:58.234Z,96812.16
